Rock Springs Sweetwater County Airport
KRKS : now visible

Airfield :











YOU CAN JOIN US ON...

 
LOGIN :

Register | Disclaimer

   EN    FR    IT 

 









Legend :    VFR   Marginal VFR   IFR   Intensive IFR   Very Intensive IFR
Visi :
Ceiling :
>= 8 km
>= 3000ft
5 to 8 km
1000 to 3000 ft
1500m to 5 km
500 to 1000 ft
800 to 1500m
200 to 500 ft
< 800m
< 200 ft
Symbols :   Thunderstorms  Fog  Heavy snow  Heavy precipitations  Wind > 20 kt






- Airport Elevation : 6764 ft
- IATA code : RKS


KRKS - Rock Springs Sweetwater County

CURRENT METAR :
  • 270454Z AUTO 25015KT 10SM FEW055 M03/M10 A3026 RMK AO2 PK WND 26029/0357 SLP291 T10331100

EXPIRED METARs :
  • 270354Z AUTO 26018G26KT 10SM CLR M03/M10 A3025 RMK AO2 PK WND 26026/0353 SLP292 T10281100
  • 270254Z AUTO 25014KT 10SM FEW060 M03/M10 A3027 RMK AO2 SLP297 T10281100 50003

TAF KRKS
Valid from the 27 at 06:00 until the 28 at 06:00 UTC


270521Z 2706/2806 26024KT P6SM FEW060
FM271600 26016KT P6SM BKN200
FM272200 26019G26KT P6SM FEW200



MET'MAP, your aeronautical weather chart ! - Copyright ORBIFLY December 2007 - Disclaimer

ORBIFLY MET'MAP TEAM :

Programming & Development : Alexandra Zaïnal
Concept & original design : Baudouin d'Aumeries
Assistance for programming : Marc-Olivier Méhu
Technical & hardware support : Manuel Goepfert

Contact : metmap@orbifly.com




SOURCES & CREDITS :

   NOAA       Earth
Advisory